Time;durP1;ratioP1;P1;durP2;ratioP2;P2;SDS_P1;SDS_P2;PMS_P1;PMS_P2;Temp;Humidity;BMP_temperature;BMP_pressure;BME280_temperature;BME280_humidity;BME280_pressure;Samples;Min_cycle;Max_cycle;Signal;HPM_P1;HPM_P2
2021/08/16 00:02:22;;;;;;;10.60;2.05;;;17.10;99.90;;;;;;5014543;28;20190;-80
2021/08/16 00:04:47;;;;;;;6.30;1.95;;;17.10;99.90;;;;;;5029377;28;20616;-80
2021/08/16 00:07:13;;;;;;;15.60;2.08;;;17.20;99.90;;;;;;5032520;28;20263;-80
2021/08/16 00:09:38;;;;;;;12.90;2.38;;;17.20;99.90;;;;;;5032629;28;20181;-80
2021/08/16 00:12:05;;;;;;;14.57;2.20;;;17.10;99.90;;;;;;5033328;28;20177;-78
2021/08/16 00:14:31;;;;;;;8.65;1.80;;;17.00;99.90;;;;;;5030052;28;20211;-80
2021/08/16 00:16:57;;;;;;;8.30;2.30;;;17.00;99.90;;;;;;5014030;28;20188;-80
2021/08/16 00:19:23;;;;;;;11.35;1.98;;;17.10;99.90;;;;;;5013645;28;20168;-79
2021/08/16 00:21:48;;;;;;;21.60;2.47;;;17.20;99.90;;;;;;5013865;28;20179;-77
2021/08/16 00:24:14;;;;;;;5.50;2.20;;;17.20;99.90;;;;;;5013798;28;20592;-78
2021/08/16 00:26:40;;;;;;;9.00;1.92;;;17.10;99.90;;;;;;5013404;28;20196;-79
2021/08/16 00:29:06;;;;;;;10.55;2.30;;;17.10;99.90;;;;;;5013550;28;20168;-79
2021/08/16 00:31:32;;;;;;;6.78;1.98;;;17.30;99.90;;;;;;5013462;28;20200;-79
2021/08/16 00:33:58;;;;;;;7.50;1.83;;;17.30;99.90;;;;;;5013676;28;20533;-79
2021/08/16 00:36:23;;;;;;;6.53;2.25;;;17.20;99.90;;;;;;5013458;28;20188;-79
2021/08/16 00:38:49;;;;;;;6.32;2.20;;;17.10;99.90;;;;;;5013496;28;20203;-79
2021/08/16 00:41:17;;;;;;;8.25;2.38;;;17.20;99.90;;;;;;5013510;28;20189;-79
2021/08/16 00:43:43;;;;;;;6.50;1.95;;;17.20;99.90;;;;;;5013521;28;20165;-79
2021/08/16 00:46:11;;;;;;;11.27;1.90;;;17.30;99.90;;;;;;5012904;28;20204;-79
2021/08/16 00:48:37;;;;;;;8.70;1.95;;;17.40;99.90;;;;;;5013191;28;20175;-79
2021/08/16 00:51:03;;;;;;;6.93;1.75;;;17.50;99.90;;;;;;5013319;28;20168;-79
2021/08/16 00:53:29;;;;;;;5.45;2.40;;;17.60;99.90;;;;;;5013541;28;20706;-79
2021/08/16 00:55:55;;;;;;;10.45;2.13;;;17.50;99.90;;;;;;5013169;28;20319;-80
2021/08/16 00:58:21;;;;;;;7.15;2.22;;;17.30;99.90;;;;;;5013345;28;20196;-79
2021/08/16 01:00:47;;;;;;;4.43;1.95;;;17.50;99.90;;;;;;5013363;28;20193;-79
2021/08/16 01:03:14;;;;;;;5.40;2.30;;;17.60;99.90;;;;;;5012217;28;20686;-79
2021/08/16 01:05:42;;;;;;;6.75;1.90;;;17.70;99.90;;;;;;5013021;28;20216;-80
2021/08/16 01:08:18;;;;;;;9.40;1.58;;;17.60;99.90;;;;;;5013019;28;20172;-79
2021/08/16 01:10:44;;;;;;;8.32;1.55;;;17.60;99.90;;;;;;5013060;28;20635;-80
2021/08/16 01:13:09;;;;;;;7.97;2.22;;;17.60;99.90;;;;;;5012765;28;20160;-79
2021/08/16 01:15:35;;;;;;;10.32;2.08;;;17.70;99.90;;;;;;5012460;28;20184;-80
2021/08/16 01:18:01;;;;;;;9.63;1.83;;;17.80;99.90;;;;;;5012695;28;20169;-80
2021/08/16 01:20:27;;;;;;;9.18;1.38;;;17.70;99.90;;;;;;5011752;28;20263;-80
2021/08/16 01:22:53;;;;;;;14.93;2.22;;;17.60;99.90;;;;;;5012451;28;20173;-79
2021/08/16 01:25:19;;;;;;;8.63;2.40;;;17.60;99.90;;;;;;5012430;28;20848;-80
2021/08/16 01:27:45;;;;;;;8.35;2.20;;;17.70;99.90;;;;;;5012806;28;20172;-80
2021/08/16 01:30:13;;;;;;;12.50;1.90;;;17.90;99.90;;;;;;5013395;28;20687;-79
2021/08/16 01:32:41;;;;;;;9.32;1.77;;;17.90;99.90;;;;;;5011911;28;20259;-80
2021/08/16 01:35:07;;;;;;;5.18;1.63;;;17.80;99.90;;;;;;5013163;28;20183;-80
2021/08/16 01:37:33;;;;;;;5.80;1.63;;;17.80;99.90;;;;;;5013357;28;20179;-80
2021/08/16 01:39:59;;;;;;;7.55;1.88;;;17.90;99.90;;;;;;5013176;28;20188;-80
2021/08/16 01:42:25;;;;;;;5.93;1.95;;;17.80;99.90;;;;;;5012980;28;20572;-80
2021/08/16 01:44:50;;;;;;;9.32;1.75;;;17.70;99.90;;;;;;5012936;28;20200;-79
2021/08/16 01:47:16;;;;;;;4.03;1.33;;;17.70;99.90;;;;;;5012842;28;20649;-80
2021/08/16 01:49:42;;;;;;;4.63;1.23;;;17.70;99.90;;;;;;5013110;28;20223;-79
2021/08/16 01:52:08;;;;;;;3.22;1.63;;;17.80;99.90;;;;;;5013155;28;20173;-80
2021/08/16 01:54:34;;;;;;;5.45;1.55;;;17.80;99.90;;;;;;5013006;28;20164;-80
2021/08/16 01:57:00;;;;;;;6.53;1.55;;;17.80;99.90;;;;;;5012783;28;20199;-80
2021/08/16 01:59:25;;;;;;;5.13;2.55;;;17.80;99.90;;;;;;5012715;28;20239;-80
2021/08/16 02:01:51;;;;;;;7.68;1.52;;;17.80;99.90;;;;;;5013303;28;20207;-80
2021/08/16 02:04:17;;;;;;;3.70;1.40;;;17.70;99.90;;;;;;5013072;28;20657;-80
2021/08/16 02:06:42;;;;;;;5.35;1.80;;;17.60;99.90;;;;;;5012922;28;20660;-80
2021/08/16 02:09:08;;;;;;;10.75;2.33;;;17.60;99.90;;;;;;5011228;28;20181;-79
2021/08/16 02:11:34;;;;;;;9.73;1.63;;;17.70;99.90;;;;;;5012207;28;20175;-80
2021/08/16 02:13:59;;;;;;;8.73;2.67;;;17.60;99.90;;;;;;5012402;28;20621;-79
2021/08/16 02:16:25;;;;;;;5.18;2.00;;;17.80;99.90;;;;;;5012759;28;20196;-79
2021/08/16 02:18:50;;;;;;;5.38;1.45;;;17.60;99.90;;;;;;5010911;28;20176;-79
2021/08/16 02:21:16;;;;;;;10.23;2.13;;;17.50;99.90;;;;;;5013051;28;20539;-79
2021/08/16 02:23:42;;;;;;;6.00;1.55;;;17.70;99.90;;;;;;5012119;28;20172;-79
2021/08/16 02:26:08;;;;;;;16.88;1.85;;;17.50;99.90;;;;;;5013685;28;20672;-79
2021/08/16 02:28:34;;;;;;;13.15;1.70;;;17.50;99.90;;;;;;5017494;28;20175;-79
2021/08/16 02:30:59;;;;;;;6.70;1.58;;;17.50;99.90;;;;;;5016469;28;20189;-79
2021/08/16 02:33:27;;;;;;;6.80;1.67;;;17.60;99.90;;;;;;5015177;28;20224;-79
2021/08/16 02:35:52;;;;;;;11.02;2.17;;;17.60;99.90;;;;;;5016653;28;20192;-79
2021/08/16 02:38:19;;;;;;;8.70;1.83;;;17.60;99.90;;;;;;5014623;28;20186;-80
2021/08/16 02:40:45;;;;;;;9.80;1.90;;;17.50;99.90;;;;;;5015040;28;20199;-79
2021/08/16 02:43:11;;;;;;;11.57;1.50;;;17.50;99.90;;;;;;5016314;28;20521;-78
2021/08/16 02:45:36;;;;;;;7.00;1.60;;;17.40;99.90;;;;;;5016231;28;20209;-78
2021/08/16 02:48:04;;;;;;;3.50;1.48;;;17.40;99.90;;;;;;5016908;28;20659;-79
2021/08/16 02:50:30;;;;;;;7.28;1.52;;;17.50;99.90;;;;;;5017498;28;20169;-79
2021/08/16 02:52:56;;;;;;;4.70;1.50;;;17.50;99.90;;;;;;5017702;28;20215;-78
2021/08/16 02:55:22;;;;;;;9.82;1.65;;;17.50;99.90;;;;;;5016296;28;20540;-79
2021/08/16 02:57:47;;;;;;;9.57;1.70;;;17.60;99.90;;;;;;5017400;28;20168;-79
2021/08/16 03:00:14;;;;;;;10.30;1.95;;;17.50;99.90;;;;;;5016924;28;20512;-80
2021/08/16 03:02:42;;;;;;;7.05;2.63;;;17.50;99.90;;;;;;5016637;28;20161;-79
2021/08/16 03:05:08;;;;;;;5.32;1.60;;;17.50;99.90;;;;;;5014941;28;20279;-80
2021/08/16 03:07:33;;;;;;;5.70;1.73;;;17.50;99.90;;;;;;5015582;28;20723;-80
2021/08/16 03:09:59;;;;;;;6.38;1.40;;;17.60;99.90;;;;;;5014571;28;20233;-79
2021/08/16 03:12:25;;;;;;;5.40;1.75;;;17.60;99.90;;;;;;5015406;28;20306;-80
2021/08/16 03:14:50;;;;;;;5.68;1.80;;;17.50;99.90;;;;;;5015546;28;20269;-80
2021/08/16 03:17:16;;;;;;;16.70;2.38;;;17.40;99.90;;;;;;5015062;28;20211;-80
2021/08/16 03:19:41;;;;;;;4.05;1.63;;;17.30;99.90;;;;;;5014957;28;20165;-79
2021/08/16 03:22:08;;;;;;;10.48;1.80;;;17.40;99.90;;;;;;5015113;28;20253;-80
2021/08/16 03:24:34;;;;;;;8.25;1.85;;;17.40;99.90;;;;;;5014875;28;20610;-80
2021/08/16 03:27:00;;;;;;;10.38;2.30;;;17.40;99.90;;;;;;5014664;28;20726;-80
2021/08/16 03:29:25;;;;;;;9.85;1.98;;;17.30;99.90;;;;;;5014833;28;20211;-79
2021/08/16 03:31:52;;;;;;;8.82;1.88;;;17.40;99.90;;;;;;5014834;28;20654;-80
2021/08/16 03:34:17;;;;;;;15.50;1.63;;;17.40;99.90;;;;;;5015025;28;20316;-80
2021/08/16 03:36:44;;;;;;;6.88;1.90;;;17.40;99.90;;;;;;5014976;28;20198;-80
2021/08/16 03:39:09;;;;;;;9.55;2.30;;;17.60;99.90;;;;;;5013708;28;20595;-80
2021/08/16 03:41:35;;;;;;;7.70;2.33;;;17.50;99.90;;;;;;5013467;28;20169;-80
2021/08/16 03:44:01;;;;;;;14.60;2.30;;;17.40;99.90;;;;;;5014368;28;20202;-79
2021/08/16 03:46:27;;;;;;;6.25;1.77;;;17.20;99.90;;;;;;5014136;28;20271;-79
2021/08/16 03:48:52;;;;;;;10.98;2.45;;;17.20;99.90;;;;;;5014377;28;20196;-79
2021/08/16 03:51:18;;;;;;;7.55;1.92;;;17.10;99.90;;;;;;5014526;28;20176;-79
2021/08/16 03:53:43;;;;;;;5.22;1.48;;;17.00;99.90;;;;;;5014332;28;20169;-79
2021/08/16 03:56:10;;;;;;;11.10;1.90;;;17.10;99.90;;;;;;5014667;28;20199;-79
2021/08/16 03:58:41;;;;;;;12.27;1.98;;;17.20;99.90;;;;;;5014734;28;20171;-79
2021/08/16 04:01:10;;;;;;;8.30;1.40;;;17.20;99.90;;;;;;5014543;28;20536;-79
2021/08/16 04:03:38;;;;;;;10.88;1.73;;;17.10;99.90;;;;;;5013339;28;20672;-79
2021/08/16 04:06:04;;;;;;;7.53;1.88;;;17.10;99.90;;;;;;5014276;28;20220;-79
2021/08/16 04:08:29;;;;;;;8.18;1.80;;;17.10;99.90;;;;;;5014550;28;20168;-79
2021/08/16 04:10:55;;;;;;;8.90;2.88;;;17.10;99.90;;;;;;5014086;28;20168;-79
2021/08/16 04:13:20;;;;;;;10.35;2.13;;;17.00;99.90;;;;;;5014221;28;20172;-79
2021/08/16 04:15:46;;;;;;;4.88;1.67;;;17.00;99.90;;;;;;5013842;28;20212;-79
2021/08/16 04:18:11;;;;;;;9.60;1.80;;;16.90;99.90;;;;;;5014027;28;20579;-79
2021/08/16 04:20:37;;;;;;;11.13;1.83;;;17.00;99.90;;;;;;5014000;28;20609;-79
2021/08/16 04:23:03;;;;;;;7.32;1.95;;;17.00;99.90;;;;;;5012988;28;20176;-79
2021/08/16 04:25:28;;;;;;;10.10;2.13;;;17.00;99.90;;;;;;5014957;28;20570;-80
2021/08/16 04:27:54;;;;;;;8.23;2.00;;;17.20;99.90;;;;;;5013763;28;20173;-79
2021/08/16 04:30:20;;;;;;;8.43;2.30;;;17.30;99.90;;;;;;5014036;28;20161;-79
2021/08/16 04:32:45;;;;;;;10.88;2.10;;;17.20;99.90;;;;;;5014320;28;20169;-79
2021/08/16 04:35:11;;;;;;;15.48;2.50;;;17.30;99.90;;;;;;5014029;28;20173;-79
2021/08/16 04:37:41;;;;;;;11.38;3.22;;;17.30;99.90;;;;;;5014290;28;20161;-79
2021/08/16 04:40:08;;;;;;;5.10;1.92;;;17.40;99.90;;;;;;5014121;28;20184;-80
2021/08/16 04:42:35;;;;;;;11.10;2.72;;;17.50;99.90;;;;;;5014043;28;20160;-79
2021/08/16 04:45:00;;;;;;;6.72;2.53;;;17.60;99.90;;;;;;5012358;28;20204;-79
2021/08/16 04:47:26;;;;;;;13.77;2.50;;;17.70;99.90;;;;;;5012556;28;20195;-79
2021/08/16 04:49:54;;;;;;;13.27;2.00;;;17.60;99.90;;;;;;5012990;28;20181;-79
2021/08/16 04:52:20;;;;;;;6.22;2.25;;;17.60;99.90;;;;;;5013571;28;20176;-79
2021/08/16 04:54:45;;;;;;;8.68;2.33;;;17.70;99.90;;;;;;5012073;28;20573;-79
2021/08/16 04:57:11;;;;;;;14.63;2.22;;;17.60;99.90;;;;;;5011777;28;20243;-79
2021/08/16 04:59:37;;;;;;;16.30;2.28;;;17.70;99.90;;;;;;5013374;28;20165;-80
2021/08/16 05:02:02;;;;;;;10.45;1.83;;;17.80;99.90;;;;;;5012889;28;20616;-80
2021/08/16 05:04:28;;;;;;;8.90;2.28;;;17.60;99.90;;;;;;5013253;28;20226;-80
2021/08/16 05:06:53;;;;;;;8.70;2.05;;;17.70;99.90;;;;;;5013171;28;20188;-79
2021/08/16 05:09:19;;;;;;;3.47;2.00;;;17.70;99.90;;;;;;5012971;28;20207;-80
2021/08/16 05:11:45;;;;;;;4.28;1.75;;;17.80;99.90;;;;;;5013486;28;20535;-80
2021/08/16 05:14:10;;;;;;;11.20;1.80;;;17.80;99.90;;;;;;5013312;28;20713;-80
2021/08/16 05:16:36;;;;;;;13.77;2.55;;;17.90;99.90;;;;;;5013541;28;20208;-80
2021/08/16 05:19:02;;;;;;;11.02;2.00;;;17.80;99.90;;;;;;5013432;28;20172;-80
2021/08/16 05:21:30;;;;;;;8.52;2.13;;;17.90;99.90;;;;;;5013649;28;20531;-80
2021/08/16 05:23:56;;;;;;;13.48;2.28;;;17.80;99.90;;;;;;5012133;28;20215;-80
2021/08/16 05:26:23;;;;;;;6.82;2.08;;;17.80;99.90;;;;;;5013459;28;20231;-80
2021/08/16 05:28:48;;;;;;;8.07;2.90;;;17.60;99.90;;;;;;5013317;28;20655;-78
2021/08/16 05:31:14;;;;;;;9.15;2.08;;;17.50;99.90;;;;;;5013581;28;20172;-78
2021/08/16 05:33:39;;;;;;;7.90;2.08;;;17.50;99.90;;;;;;5013368;28;20172;-79
2021/08/16 05:36:06;;;;;;;9.25;1.90;;;17.70;99.90;;;;;;5012931;28;20210;-79
2021/08/16 05:38:31;;;;;;;6.47;1.90;;;17.80;99.90;;;;;;5013286;28;20168;-79
2021/08/16 05:40:57;;;;;;;8.05;2.55;;;17.80;99.90;;;;;;5011812;28;20192;-79
2021/08/16 05:43:23;;;;;;;7.00;2.25;;;17.80;99.90;;;;;;5013019;28;20173;-79
2021/08/16 05:45:48;;;;;;;9.60;2.33;;;17.80;99.90;;;;;;5012850;28;20219;-79
2021/08/16 05:48:17;;;;;;;11.02;2.13;;;17.90;99.90;;;;;;5013005;28;20176;-80
2021/08/16 05:50:43;;;;;;;5.97;2.50;;;18.00;99.90;;;;;;5012933;28;20670;-80
2021/08/16 05:53:09;;;;;;;7.03;2.38;;;18.10;99.90;;;;;;5012687;28;20263;-80
2021/08/16 05:55:35;;;;;;;9.55;2.25;;;17.90;99.90;;;;;;5012782;28;20271;-80
2021/08/16 05:58:00;;;;;;;5.55;2.15;;;18.00;99.90;;;;;;5012776;28;20196;-80
2021/08/16 06:00:26;;;;;;;9.98;2.38;;;18.00;99.90;;;;;;5012736;28;20227;-82
2021/08/16 06:02:52;;;;;;;5.85;2.00;;;18.20;99.90;;;;;;5015259;28;20169;-80
2021/08/16 06:05:17;;;;;;;6.85;3.08;;;18.20;99.90;;;;;;5016510;28;20216;-80
2021/08/16 06:07:43;;;;;;;12.77;2.58;;;18.30;99.90;;;;;;5016450;28;20172;-81
2021/08/16 06:10:09;;;;;;;9.98;2.75;;;18.30;99.90;;;;;;5015606;28;20172;-80
2021/08/16 06:12:35;;;;;;;3.17;2.28;;;18.50;99.90;;;;;;5016884;28;20247;-80
2021/08/16 06:15:00;;;;;;;7.50;2.40;;;18.30;99.90;;;;;;5016757;28;20628;-79
2021/08/16 06:17:29;;;;;;;7.03;2.65;;;18.40;99.90;;;;;;5016284;28;20165;-79
2021/08/16 06:19:54;;;;;;;8.70;1.85;;;18.50;99.90;;;;;;5016314;28;20621;-79
2021/08/16 06:22:20;;;;;;;17.83;2.17;;;18.50;99.90;;;;;;5017385;28;20283;-79
2021/08/16 06:24:45;;;;;;;12.77;2.97;;;18.40;99.90;;;;;;5016982;28;20199;-80
2021/08/16 06:27:11;;;;;;;16.13;2.95;;;18.50;99.90;;;;;;5017240;28;20239;-80
2021/08/16 06:29:37;;;;;;;12.20;2.70;;;18.60;99.90;;;;;;5016447;28;20168;-80
2021/08/16 06:32:02;;;;;;;7.20;2.55;;;18.50;99.90;;;;;;5015571;28;20172;-80
2021/08/16 06:34:28;;;;;;;9.77;2.30;;;18.40;99.90;;;;;;5016918;28;20176;-80
2021/08/16 06:36:55;;;;;;;5.07;2.78;;;18.50;99.90;;;;;;5016382;28;20715;-81
2021/08/16 06:39:23;;;;;;;5.28;2.30;;;18.70;99.90;;;;;;5015159;28;20259;-80
2021/08/16 06:41:53;;;;;;;6.63;2.22;;;18.70;99.90;;;;;;5015974;28;20195;-80
2021/08/16 06:44:25;;;;;;;9.15;2.85;;;18.80;99.90;;;;;;5021840;28;20172;-79
2021/08/16 06:46:51;;;;;;;4.88;2.30;;;19.10;99.90;;;;;;5032980;28;20188;-79
2021/08/16 06:49:17;;;;;;;8.63;2.88;;;19.00;99.90;;;;;;5035041;28;20226;-80
2021/08/16 06:51:43;;;;;;;7.18;2.50;;;18.80;99.90;;;;;;5036088;28;20164;-80
2021/08/16 06:54:08;;;;;;;6.68;2.40;;;18.80;99.90;;;;;;5035441;28;20164;-80
2021/08/16 06:56:35;;;;;;;4.68;2.25;;;18.90;99.90;;;;;;5022440;28;20238;-79
2021/08/16 06:59:00;;;;;;;14.32;3.15;;;18.90;99.90;;;;;;5015207;28;20304;-79
2021/08/16 07:01:28;;;;;;;4.60;2.67;;;18.80;99.90;;;;;;5015868;28;20602;-80
2021/08/16 07:03:55;;;;;;;17.60;3.05;;;18.80;99.90;;;;;;5014240;28;20218;-80
2021/08/16 07:06:21;;;;;;;11.60;3.22;;;18.70;99.90;;;;;;5015517;28;20212;-80
2021/08/16 07:08:47;;;;;;;3.90;2.55;;;18.70;99.90;;;;;;5015292;28;20244;-85
2021/08/16 07:11:13;;;;;;;13.15;3.45;;;18.80;99.90;;;;;;5033276;28;20224;-86
2021/08/16 07:13:39;;;;;;;5.82;2.50;;;18.90;99.90;;;;;;5036568;28;20560;-86
2021/08/16 07:16:06;;;;;;;12.90;3.28;;;18.90;99.90;;;;;;5037698;28;20196;-85
2021/08/16 07:18:35;;;;;;;6.82;2.78;;;18.80;99.90;;;;;;5028658;28;20580;-86
2021/08/16 07:21:05;;;;;;;7.38;2.90;;;19.00;99.90;;;;;;5015399;28;20184;-86
2021/08/16 07:23:34;;;;;;;9.85;3.33;;;19.40;99.90;;;;;;5015591;28;20262;-87
2021/08/16 07:26:02;;;;;;;5.78;2.67;;;19.50;99.90;;;;;;5014984;28;20312;-86
2021/08/16 07:28:29;;;;;;;7.28;2.80;;;19.60;99.90;;;;;;5016051;28;20173;-86
2021/08/16 07:30:57;;;;;;;4.13;2.15;;;19.60;99.90;;;;;;5016070;28;20259;-87
2021/08/16 07:33:43;;;;;;;7.47;2.88;;;19.60;99.90;;;;;;4999890;28;20172;-86
2021/08/16 07:36:08;;;;;;;8.05;2.83;;;19.50;99.90;;;;;;5016299;28;20271;-86
2021/08/16 07:38:34;;;;;;;6.90;2.50;;;19.70;99.90;;;;;;5014715;28;20196;-86
2021/08/16 07:41:00;;;;;;;4.82;2.33;;;19.90;99.90;;;;;;5014347;28;20227;-87
2021/08/16 07:43:28;;;;;;;4.30;2.40;;;19.70;99.90;;;;;;5014700;28;20179;-86
2021/08/16 07:45:53;;;;;;;6.97;2.88;;;19.90;99.90;;;;;;5015337;28;20216;-85
2021/08/16 07:48:22;;;;;;;2.78;2.10;;;19.90;99.90;;;;;;5014795;28;20179;-87
2021/08/16 07:50:48;;;;;;;8.48;2.33;;;19.80;99.90;;;;;;5030770;28;20326;-87
2021/08/16 07:53:13;;;;;;;6.93;2.42;;;19.80;99.90;;;;;;5036078;28;20239;-87
2021/08/16 07:55:40;;;;;;;4.75;2.10;;;19.70;99.90;;;;;;5034456;28;20213;-86
2021/08/16 07:58:06;;;;;;;13.32;3.25;;;19.40;99.90;;;;;;5035966;28;20164;-86
2021/08/16 08:00:31;;;;;;;5.00;2.15;;;19.30;99.90;;;;;;5019784;28;20560;-81
2021/08/16 08:02:57;;;;;;;3.90;2.65;;;19.30;99.90;;;;;;5012981;28;20175;-81
2021/08/16 08:05:24;;;;;;;7.50;2.65;;;19.20;99.90;;;;;;5011976;28;20226;-80
2021/08/16 08:07:50;;;;;;;8.90;2.70;;;19.20;99.90;;;;;;5012281;28;20541;-81
2021/08/16 08:10:18;;;;;;;6.80;2.72;;;19.30;99.90;;;;;;5012566;28;20176;-79
2021/08/16 08:12:45;;;;;;;4.32;2.70;;;19.40;99.90;;;;;;5012461;28;20562;-81
2021/08/16 08:15:12;;;;;;;7.40;2.92;;;19.30;99.90;;;;;;5013626;28;20204;-81
2021/08/16 08:17:37;;;;;;;6.68;3.40;;;19.40;99.90;;;;;;5014667;28;20172;-84
2021/08/16 08:20:06;;;;;;;7.28;3.47;;;19.00;99.90;;;;;;5013331;28;20183;-83
2021/08/16 08:22:33;;;;;;;12.30;2.88;;;18.70;99.90;;;;;;5014213;28;20620;-83
2021/08/16 08:24:59;;;;;;;3.10;2.65;;;18.30;99.90;;;;;;5014621;28;20231;-81
2021/08/16 08:27:25;;;;;;;3.30;2.33;;;18.30;99.90;;;;;;5014173;28;20555;-82
2021/08/16 08:29:50;;;;;;;4.72;3.03;;;18.20;99.90;;;;;;5013875;28;20172;-83
2021/08/16 08:32:16;;;;;;;4.07;3.10;;;18.20;99.90;;;;;;5014204;28;20613;-80
2021/08/16 08:34:42;;;;;;;3.22;1.80;;;18.20;99.90;;;;;;5014967;28;20171;-82
2021/08/16 08:37:11;;;;;;;5.03;2.10;;;18.10;99.90;;;;;;5015732;28;20576;-82
2021/08/16 08:39:37;;;;;;;2.97;2.40;;;17.80;99.90;;;;;;5020284;28;20176;-81
2021/08/16 08:42:15;;;;;;;6.85;2.53;;;17.80;99.90;;;;;;5024716;28;20187;-83
2021/08/16 08:44:42;;;;;;;2.88;2.30;;;17.80;99.90;;;;;;5028887;28;20239;-81
2021/08/16 08:47:08;;;;;;;6.55;2.50;;;17.70;99.90;;;;;;5023694;28;20193;-81
2021/08/16 08:49:35;;;;;;;2.20;1.98;;;17.80;99.90;;;;;;5020891;28;20176;-81
2021/08/16 08:52:02;;;;;;;3.50;1.95;;;17.90;99.90;;;;;;5030274;28;20161;-81
2021/08/16 08:54:28;;;;;;;6.70;2.53;;;17.90;99.90;;;;;;5025811;28;20191;-81
2021/08/16 08:56:56;;;;;;;6.18;2.20;;;18.00;99.90;;;;;;5029117;28;20661;-81
2021/08/16 08:59:22;;;;;;;9.27;2.33;;;18.10;99.90;;;;;;5024164;28;20177;-81
2021/08/16 09:01:56;;;;;;;3.15;2.20;;;18.00;99.90;;;;;;5022048;28;20161;-80
2021/08/16 09:04:22;;;;;;;9.52;1.75;;;17.90;99.90;;;;;;5027365;28;20207;-82
2021/08/16 09:06:48;;;;;;;3.65;2.15;;;18.00;99.90;;;;;;5031717;28;20204;-84
2021/08/16 09:09:16;;;;;;;5.05;2.47;;;18.10;99.90;;;;;;5033461;28;20156;-82
2021/08/16 09:11:46;;;;;;;4.05;2.25;;;18.10;99.90;;;;;;5018969;28;20563;-82
2021/08/16 09:14:12;;;;;;;8.93;2.78;;;18.10;99.90;;;;;;5011959;28;20176;-82
2021/08/16 09:16:41;;;;;;;5.35;2.20;;;18.20;99.90;;;;;;5011682;28;20188;-83
2021/08/16 09:19:24;;;;;;;3.15;2.13;;;18.30;99.90;;;;;;5011877;28;20256;-82
2021/08/16 09:22:05;;;;;;;8.80;2.70;;;18.40;99.90;;;;;;5012825;28;20210;-81
2021/08/16 09:24:34;;;;;;;9.95;2.22;;;18.60;99.90;;;;;;5012814;28;20226;-84
2021/08/16 09:27:06;;;;;;;5.57;2.55;;;18.70;99.90;;;;;;5011405;28;20207;-84
2021/08/16 09:29:32;;;;;;;6.53;2.47;;;18.80;99.90;;;;;;5011384;28;20184;-82
2021/08/16 09:32:02;;;;;;;9.60;2.72;;;19.10;99.90;;;;;;5011268;28;20628;-81
2021/08/16 09:34:31;;;;;;;7.22;2.33;;;19.20;99.90;;;;;;5011443;28;20200;-81
2021/08/16 09:37:01;;;;;;;6.13;2.50;;;19.40;99.90;;;;;;5011110;28;20203;-80
2021/08/16 09:39:28;;;;;;;5.78;2.08;;;19.40;99.90;;;;;;5012239;28;20160;-80
2021/08/16 09:42:02;;;;;;;8.65;3.17;;;19.30;99.90;;;;;;5020111;28;20258;-80
2021/08/16 09:44:28;;;;;;;5.10;2.78;;;19.60;99.90;;;;;;5030250;28;20211;-79
2021/08/16 09:47:12;;;;;;;5.30;3.13;;;19.90;99.90;;;;;;5029025;28;20192;-80
2021/08/16 09:49:38;;;;;;;11.02;3.60;;;19.70;99.90;;;;;;5030106;28;20160;-79
2021/08/16 09:52:06;;;;;;;8.07;3.70;;;19.40;99.90;;;;;;5029805;28;20179;-81
2021/08/16 09:54:34;;;;;;;6.28;4.22;;;19.30;99.90;;;;;;5033257;28;20164;-80
2021/08/16 09:57:01;;;;;;;13.43;4.53;;;19.30;99.90;;;;;;5023388;28;20184;-80
2021/08/16 09:59:28;;;;;;;8.52;3.22;;;19.40;99.90;;;;;;5013006;28;20157;-83
2021/08/16 10:01:55;;;;;;;7.80;3.55;;;19.50;99.90;;;;;;5012545;28;20172;-85
2021/08/16 10:04:20;;;;;;;8.43;3.90;;;19.80;99.90;;;;;;5012337;28;20175;-84
2021/08/16 10:06:48;;;;;;;6.00;4.30;;;19.80;99.90;;;;;;5012490;28;20188;-80
2021/08/16 10:09:16;;;;;;;5.40;3.88;;;19.80;99.90;;;;;;5012838;28;20176;-80
2021/08/16 10:11:42;;;;;;;8.35;4.85;;;19.90;99.90;;;;;;5017001;28;20172;-80
2021/08/16 10:14:08;;;;;;;5.43;4.28;;;20.10;99.90;;;;;;5031927;28;20186;-80
2021/08/16 10:16:39;;;;;;;8.85;5.20;;;20.10;99.90;;;;;;5031276;28;20193;-79
2021/08/16 10:19:11;;;;;;;9.10;5.07;;;20.10;99.90;;;;;;5031143;28;20184;-80
2021/08/16 10:21:38;;;;;;;14.15;6.03;;;20.50;99.90;;;;;;5030670;28;20176;-81
2021/08/16 10:24:25;;;;;;;9.27;7.10;;;20.80;99.90;;;;;;5031847;28;20165;-80
2021/08/16 10:27:07;;;;;;;18.27;6.88;;;21.10;99.90;;;;;;5023895;28;20278;-81
2021/08/16 10:29:33;;;;;;;13.55;8.38;;;21.00;99.90;;;;;;5012351;28;20161;-80
2021/08/16 10:32:00;;;;;;;17.08;7.72;;;20.80;99.90;;;;;;5012044;28;20184;-80
2021/08/16 10:34:32;;;;;;;9.10;7.22;;;20.80;99.90;;;;;;5011106;28;20180;-81
2021/08/16 10:37:01;;;;;;;15.05;8.52;;;20.80;99.90;;;;;;5012065;28;20200;-80
2021/08/16 10:39:41;;;;;;;12.75;7.70;;;20.80;99.90;;;;;;5012089;28;20179;-80
2021/08/16 10:42:16;;;;;;;13.88;8.68;;;20.80;99.90;;;;;;5011261;28;20176;-80
2021/08/16 10:44:50;;;;;;;11.80;8.98;;;20.80;99.90;;;;;;5012265;28;20215;-80
2021/08/16 10:47:34;;;;;;;19.67;9.07;;;20.80;99.90;;;;;;5012123;28;20251;-84
2021/08/16 10:50:12;;;;;;;19.25;9.65;;;20.80;99.90;;;;;;5014318;28;20171;-81
2021/08/16 10:52:40;;;;;;;18.50;10.05;;;21.00;99.90;;;;;;5015200;28;20238;-80
2021/08/16 10:55:17;;;;;;;15.88;10.68;;;21.00;99.90;;;;;;5015192;28;20164;-80
2021/08/16 10:57:44;;;;;;;19.63;10.95;;;20.90;99.90;;;;;;5015709;28;20164;-81
2021/08/16 11:00:12;;;;;;;20.85;11.85;;;20.90;99.90;;;;;;5016089;28;20223;-81
2021/08/16 11:02:40;;;;;;;15.55;11.77;;;20.80;99.90;;;;;;5016165;28;20251;-80
2021/08/16 11:05:07;;;;;;;13.27;11.23;;;20.90;99.90;;;;;;5016011;28;20208;-82
2021/08/16 11:07:33;;;;;;;16.25;12.20;;;20.70;99.90;;;;;;5014897;28;20180;-81
2021/08/16 11:10:02;;;;;;;19.88;13.02;;;20.40;99.90;;;;;;5016446;28;20173;-80
2021/08/16 11:12:45;;;;;;;22.80;12.95;;;20.40;99.90;;;;;;5015894;28;20165;-81
2021/08/16 11:15:12;;;;;;;16.30;12.10;;;20.40;99.90;;;;;;5015927;28;20199;-81
2021/08/16 11:17:38;;;;;;;24.42;12.70;;;20.70;99.90;;;;;;5014943;28;20183;-81
2021/08/16 11:20:06;;;;;;;18.67;13.65;;;20.90;99.90;;;;;;5016560;28;20165;-82
2021/08/16 11:22:32;;;;;;;15.45;11.38;;;21.10;99.90;;;;;;5015791;28;20172;-80
2021/08/16 11:25:05;;;;;;;16.60;12.27;;;21.30;99.90;;;;;;5013685;28;20192;-80
2021/08/16 11:27:31;;;;;;;15.13;12.05;;;21.30;99.90;;;;;;5015466;28;20165;-81
2021/08/16 11:30:03;;;;;;;17.33;13.55;;;20.90;99.90;;;;;;5014807;28;20168;-81
2021/08/16 11:32:31;;;;;;;21.98;12.55;;;20.90;99.90;;;;;;5015194;28;20202;-80
2021/08/16 11:34:58;;;;;;;23.23;12.60;;;20.40;99.90;;;;;;5015081;28;20249;-81
2021/08/16 11:37:29;;;;;;;45.58;15.52;;;20.00;99.90;;;;;;5015342;28;20235;-80
2021/08/16 11:39:56;;;;;;;30.45;14.43;;;19.90;99.90;;;;;;5015009;28;20272;-81
2021/08/16 11:42:23;;;;;;;25.92;13.52;;;19.90;99.90;;;;;;5013130;28;20183;-80
2021/08/16 11:45:00;;;;;;;20.60;13.55;;;20.10;99.90;;;;;;5014667;28;20200;-80
2021/08/16 11:47:48;;;;;;;26.00;13.55;;;20.00;99.90;;;;;;5015613;28;20255;-80
2021/08/16 11:50:16;;;;;;;31.70;13.20;;;20.00;99.90;;;;;;5014379;28;20190;-81
2021/08/16 11:52:43;;;;;;;36.95;15.88;;;19.80;99.90;;;;;;5015913;28;20172;-81
2021/08/16 11:55:11;;;;;;;21.40;12.57;;;19.70;99.90;;;;;;5014193;28;20184;-81
2021/08/16 11:57:38;;;;;;;21.08;12.48;;;19.70;99.90;;;;;;5015210;28;20176;-82
2021/08/16 12:00:05;;;;;;;30.52;14.10;;;19.70;99.90;;;;;;5013854;28;20649;-81
2021/08/16 12:02:36;;;;;;;31.60;14.50;;;19.60;99.90;;;;;;5015905;28;20946;-81
2021/08/16 12:05:02;;;;;;;27.48;15.50;;;19.70;99.90;;;;;;5014227;28;20613;-81
2021/08/16 12:07:29;;;;;;;30.83;13.35;;;19.90;99.90;;;;;;5013832;28;20240;-82
2021/08/16 12:09:56;;;;;;;59.00;14.65;;;20.00;99.90;;;;;;5015054;28;20161;-81
2021/08/16 12:12:26;;;;;;;24.83;14.43;;;20.10;99.90;;;;;;5012955;28;20271;-82
2021/08/16 12:15:17;;;;;;;29.23;14.10;;;20.10;99.90;;;;;;5013679;28;20177;-81
2021/08/16 12:17:44;;;;;;;17.67;12.20;;;20.10;99.90;;;;;;5013451;28;20227;-80
2021/08/16 12:20:14;;;;;;;16.45;12.32;;;20.00;99.90;;;;;;5013315;28;20176;-81
2021/08/16 12:22:56;;;;;;;16.58;11.63;;;20.00;99.90;;;;;;5012227;28;20628;-81
2021/08/16 12:25:23;;;;;;;18.92;12.80;;;20.20;99.90;;;;;;5011383;28;20220;-80
2021/08/16 12:28:02;;;;;;;46.47;12.90;;;20.20;99.90;;;;;;5014158;28;20671;-78
2021/08/16 12:30:32;;;;;;;24.17;12.35;;;20.50;99.90;;;;;;5015912;28;20290;-81
2021/08/16 12:33:10;;;;;;;18.02;12.45;;;20.70;99.90;;;;;;5031383;28;20259;-80
2021/08/16 12:35:37;;;;;;;19.83;13.07;;;21.00;99.90;;;;;;5030152;28;20188;-80
2021/08/16 12:38:04;;;;;;;15.63;11.18;;;21.00;99.90;;;;;;5030539;28;20667;-80
2021/08/16 12:40:30;;;;;;;19.73;11.70;;;21.10;99.90;;;;;;5031943;28;20274;-81
2021/08/16 12:43:03;;;;;;;17.42;12.40;;;20.90;99.90;;;;;;5031915;28;20286;-82